createdAt,value
2018-05-23T00:01:13.517Z,16.57
2018-05-23T00:03:41.040Z,16.54
2018-05-23T00:06:08.589Z,16.54
2018-05-23T00:08:36.156Z,16.50
2018-05-23T00:13:36.401Z,16.51
2018-05-23T00:16:03.935Z,16.44
2018-05-23T00:18:31.464Z,16.33
2018-05-23T00:20:59.050Z,16.31
2018-05-23T00:23:26.605Z,16.30
2018-05-23T00:25:54.134Z,16.34
2018-05-23T00:28:21.699Z,16.31
2018-05-23T00:30:49.253Z,16.28
2018-05-23T00:33:16.774Z,16.24
2018-05-23T00:35:44.283Z,16.22
2018-05-23T00:38:11.812Z,16.20
2018-05-23T00:40:39.372Z,16.11
2018-05-23T00:43:06.919Z,16.11
2018-05-23T00:45:34.459Z,16.05
2018-05-23T00:48:01.971Z,15.99
2018-05-23T00:50:29.579Z,16.00
2018-05-23T00:52:58.117Z,16.03
2018-05-23T00:55:37.437Z,15.98
2018-05-23T00:58:04.959Z,15.99
2018-05-23T01:00:32.526Z,15.93
2018-05-23T01:03:00.057Z,15.96
2018-05-23T01:05:27.640Z,15.96
2018-05-23T01:07:55.223Z,16.00
2018-05-23T01:10:22.809Z,15.96
2018-05-23T01:12:50.348Z,15.96
2018-05-23T01:15:17.931Z,15.96
2018-05-23T01:17:45.446Z,15.87
2018-05-23T01:20:13.021Z,15.89
2018-05-23T01:22:40.534Z,15.92
2018-05-23T01:25:08.052Z,15.88
2018-05-23T01:27:35.638Z,15.85
2018-05-23T01:30:06.620Z,15.83
2018-05-23T01:32:34.957Z,15.86
2018-05-23T01:35:02.503Z,15.83
2018-05-23T01:37:30.028Z,15.79
2018-05-23T01:39:57.556Z,15.69
2018-05-23T01:42:25.120Z,15.70
2018-05-23T01:44:52.778Z,15.66
2018-05-23T01:47:20.491Z,15.56
2018-05-23T01:49:48.031Z,15.57
2018-05-23T01:52:15.609Z,15.59
2018-05-23T01:54:43.159Z,15.55
2018-05-23T01:57:10.935Z,15.52
2018-05-23T01:59:38.455Z,15.51
2018-05-23T02:02:05.994Z,15.52
2018-05-23T02:04:33.509Z,15.47
2018-05-23T02:07:01.028Z,15.45
2018-05-23T02:09:28.566Z,15.41
2018-05-23T02:11:56.126Z,15.40
2018-05-23T02:14:23.708Z,15.43
2018-05-23T02:16:51.269Z,15.40
2018-05-23T02:19:18.805Z,15.38
2018-05-23T02:21:46.372Z,15.43
2018-05-23T02:24:13.911Z,15.37
2018-05-23T02:26:41.464Z,15.39
2018-05-23T02:29:09.072Z,15.41
2018-05-23T02:31:36.613Z,15.35
2018-05-23T02:34:04.168Z,15.24
2018-05-23T02:36:31.691Z,15.30
2018-05-23T02:38:59.296Z,15.16
2018-05-23T02:41:26.823Z,15.17
2018-05-23T02:43:54.369Z,15.21
2018-05-23T02:46:21.911Z,15.11
2018-05-23T02:48:49.422Z,15.03
2018-05-23T02:51:16.992Z,15.00
2018-05-23T02:53:44.540Z,15.01
2018-05-23T02:56:12.084Z,15.01
2018-05-23T02:58:39.614Z,15.02
2018-05-23T03:01:07.139Z,15.04
2018-05-23T03:03:34.750Z,15.02
2018-05-23T03:06:03.141Z,15.06
2018-05-23T03:08:30.666Z,15.00
2018-05-23T03:10:58.202Z,15.08
2018-05-23T03:13:25.728Z,15.02
2018-05-23T03:15:53.258Z,15.03
2018-05-23T03:18:20.769Z,15.04
2018-05-23T03:20:48.281Z,15.14
2018-05-23T03:23:15.844Z,15.16
2018-05-23T03:25:43.374Z,15.19
2018-05-23T03:28:10.950Z,15.17
2018-05-23T03:30:38.476Z,15.18
2018-05-23T03:33:06.035Z,15.20
2018-05-23T03:35:33.573Z,15.30
2018-05-23T03:38:01.156Z,15.25
2018-05-23T03:40:28.694Z,15.34
2018-05-23T03:42:56.260Z,15.34
2018-05-23T03:45:23.831Z,15.35
2018-05-23T03:47:51.350Z,15.45
2018-05-23T03:50:18.883Z,15.44
2018-05-23T03:52:46.435Z,15.54
2018-05-23T03:55:14.001Z,15.61
2018-05-23T03:57:41.524Z,15.63
2018-05-23T04:00:20.974Z,15.67
2018-05-23T04:03:00.303Z,15.72
2018-05-23T04:05:39.753Z,15.80
2018-05-23T04:08:07.302Z,15.83
2018-05-23T04:10:34.831Z,15.95
2018-05-23T04:13:02.376Z,15.99
2018-05-23T04:15:29.931Z,16.00
2018-05-23T04:17:57.429Z,16.08
2018-05-23T04:20:24.972Z,16.08
2018-05-23T04:22:52.511Z,16.12
2018-05-23T04:25:20.023Z,16.21
2018-05-23T04:27:47.568Z,16.27
2018-05-23T04:30:15.147Z,16.29
2018-05-23T04:32:42.666Z,16.35
2018-05-23T04:35:10.207Z,16.32
2018-05-23T04:37:37.780Z,16.31
2018-05-23T04:40:05.314Z,16.38
2018-05-23T04:42:32.842Z,16.33
2018-05-23T04:45:00.396Z,16.37
2018-05-23T04:47:27.935Z,16.39
2018-05-23T04:49:55.459Z,16.46
2018-05-23T04:52:23.000Z,16.44
2018-05-23T04:54:50.537Z,16.49
2018-05-23T04:57:18.082Z,16.23
2018-05-23T04:59:45.656Z,16.33
2018-05-23T05:02:13.180Z,16.47
2018-05-23T05:04:40.737Z,16.53
2018-05-23T05:07:08.285Z,16.61
2018-05-23T05:09:35.878Z,16.68
2018-05-23T05:12:03.421Z,16.72
2018-05-23T05:14:30.967Z,16.77
2018-05-23T05:16:58.570Z,16.90
2018-05-23T05:19:26.055Z,17.03
2018-05-23T05:21:53.608Z,17.12
2018-05-23T05:24:21.204Z,17.24
2018-05-23T05:26:48.695Z,17.31
2018-05-23T05:29:16.232Z,17.26
2018-05-23T05:31:43.869Z,17.30
2018-05-23T05:34:11.384Z,17.37
2018-05-23T05:36:38.964Z,17.44
2018-05-23T05:39:06.497Z,17.49
2018-05-23T05:41:34.035Z,17.53
2018-05-23T05:44:01.567Z,17.66
2018-05-23T05:46:29.160Z,17.51
2018-05-23T05:48:56.759Z,17.68
2018-05-23T05:51:24.364Z,17.85
2018-05-23T05:53:51.937Z,17.86
2018-05-23T05:56:19.471Z,17.97
2018-05-23T05:58:47.008Z,17.96
2018-05-23T06:01:14.569Z,18.08
2018-05-23T06:03:42.117Z,18.15
2018-05-23T06:06:09.664Z,18.32
2018-05-23T06:08:37.203Z,18.26
2018-05-23T06:11:04.852Z,18.36
2018-05-23T06:13:32.404Z,18.45
2018-05-23T06:15:59.969Z,18.51
2018-05-23T06:18:27.534Z,18.47
2018-05-23T06:20:55.167Z,18.58
2018-05-23T06:23:22.703Z,18.74
2018-05-23T06:25:50.228Z,18.78
2018-05-23T06:28:17.869Z,18.86
2018-05-23T06:30:45.391Z,18.95
2018-05-23T06:33:12.926Z,18.95
2018-05-23T06:35:40.445Z,19.05
2018-05-23T06:38:07.969Z,19.09
2018-05-23T06:40:35.525Z,19.16
2018-05-23T06:43:03.233Z,19.13
2018-05-23T06:45:31.726Z,19.28
2018-05-23T06:48:00.102Z,19.39
2018-05-23T06:50:27.645Z,19.55
2018-05-23T06:52:55.224Z,19.54
2018-05-23T06:55:22.755Z,19.58
2018-05-23T06:57:50.281Z,19.67
2018-05-23T07:00:17.868Z,19.81
2018-05-23T07:02:45.409Z,19.84
2018-05-23T07:05:12.936Z,19.84
2018-05-23T07:07:40.511Z,19.83
2018-05-23T07:10:08.026Z,19.92
2018-05-23T07:12:35.655Z,19.97
2018-05-23T07:15:03.247Z,20.05
2018-05-23T07:17:30.794Z,20.18
2018-05-23T07:19:58.326Z,20.21
2018-05-23T07:22:25.856Z,20.19
2018-05-23T07:24:53.375Z,20.27
2018-05-23T07:27:20.958Z,20.33
2018-05-23T07:29:48.487Z,20.47
2018-05-23T07:32:16.063Z,20.55
2018-05-23T07:34:43.580Z,20.71
2018-05-23T07:37:11.116Z,20.74
2018-05-23T07:39:38.659Z,20.79
2018-05-23T07:42:06.181Z,20.95
2018-05-23T07:44:33.744Z,21.19
2018-05-23T07:47:01.262Z,21.42
2018-05-23T07:49:28.782Z,21.59
2018-05-23T07:51:56.348Z,21.62
2018-05-23T07:54:23.872Z,21.89
2018-05-23T07:56:51.401Z,22.09
2018-05-23T07:59:18.993Z,22.10
2018-05-23T08:01:46.536Z,22.00
2018-05-23T08:04:14.089Z,21.96
2018-05-23T08:06:41.653Z,21.99
2018-05-23T08:09:09.248Z,21.96
2018-05-23T08:11:36.802Z,22.17
2018-05-23T08:14:04.341Z,22.22
2018-05-23T08:16:31.847Z,22.43
2018-05-23T08:18:59.457Z,22.47
2018-05-23T08:21:27.845Z,22.54
2018-05-23T08:23:55.371Z,22.83
2018-05-23T08:26:22.907Z,23.00
2018-05-23T08:28:50.458Z,23.17
2018-05-23T08:31:18.040Z,23.18
2018-05-23T08:33:45.675Z,23.09
2018-05-23T08:36:13.197Z,23.17
2018-05-23T08:38:40.715Z,23.29
2018-05-23T08:41:09.099Z,23.46
2018-05-23T08:43:36.615Z,23.46
2018-05-23T08:46:04.214Z,23.49
2018-05-23T08:48:31.928Z,23.36
2018-05-23T08:50:59.444Z,23.62
2018-05-23T08:53:26.981Z,23.77
2018-05-23T08:55:54.519Z,23.85
2018-05-23T08:58:22.095Z,23.86
2018-05-23T09:00:49.626Z,24.11
2018-05-23T09:03:17.200Z,24.20
2018-05-23T09:05:44.734Z,24.15
2018-05-23T09:08:12.288Z,24.20
2018-05-23T09:10:39.812Z,24.42
2018-05-23T09:13:07.318Z,24.23
2018-05-23T09:15:34.832Z,24.47
2018-05-23T09:18:02.354Z,24.32
2018-05-23T09:20:29.932Z,24.39
2018-05-23T09:22:57.473Z,24.27
2018-05-23T09:25:25.068Z,24.13
2018-05-23T09:27:52.650Z,24.24
2018-05-23T09:30:20.263Z,24.32
2018-05-23T09:32:47.784Z,24.41
2018-05-23T09:35:15.317Z,24.48
2018-05-23T09:37:42.885Z,24.61
2018-05-23T09:40:10.434Z,24.79
2018-05-23T09:42:37.947Z,24.85
2018-05-23T09:45:05.597Z,24.81
2018-05-23T09:47:33.936Z,25.09
2018-05-23T09:50:01.465Z,24.81
2018-05-23T09:52:29.020Z,24.83
2018-05-23T09:54:56.601Z,24.84
2018-05-23T09:57:24.090Z,24.68
2018-05-23T09:59:51.609Z,25.06
2018-05-23T10:02:19.199Z,25.12
2018-05-23T10:04:46.727Z,24.96
2018-05-23T10:07:14.292Z,25.00
2018-05-23T10:09:41.834Z,25.18
2018-05-23T10:12:09.355Z,25.13
2018-05-23T10:14:36.881Z,25.28
2018-05-23T10:17:04.391Z,25.63
2018-05-23T10:19:31.999Z,25.73
2018-05-23T10:21:59.567Z,25.79
2018-05-23T10:24:27.096Z,25.81
2018-05-23T10:26:54.630Z,25.79
2018-05-23T10:29:22.150Z,25.87
2018-05-23T10:31:49.700Z,25.94
2018-05-23T10:34:17.383Z,26.14
2018-05-23T10:36:44.911Z,26.23
2018-05-23T10:39:12.435Z,26.28
2018-05-23T10:41:39.975Z,26.23
2018-05-23T10:44:07.490Z,26.40
2018-05-23T10:46:35.008Z,26.44
2018-05-23T10:49:02.517Z,26.66
2018-05-23T10:51:30.041Z,26.94
2018-05-23T10:53:57.590Z,27.12
2018-05-23T10:56:25.118Z,27.43
2018-05-23T10:58:52.629Z,27.95
2018-05-23T11:01:21.156Z,28.36
2018-05-23T11:03:48.684Z,28.70
2018-05-23T11:06:16.243Z,29.12
2018-05-23T11:08:43.780Z,29.62
2018-05-23T11:11:11.363Z,29.76
2018-05-23T11:13:38.890Z,29.76
2018-05-23T11:16:06.432Z,29.66
2018-05-23T11:18:33.958Z,30.05
2018-05-23T11:21:01.500Z,30.41
2018-05-23T11:23:29.069Z,30.54
2018-05-23T11:25:56.596Z,30.60
2018-05-23T11:28:25.058Z,30.38
2018-05-23T11:30:52.594Z,30.54
2018-05-23T11:33:20.124Z,30.89
2018-05-23T11:35:47.658Z,30.94
2018-05-23T11:38:15.192Z,31.03
2018-05-23T11:40:42.790Z,31.10
2018-05-23T11:43:10.356Z,30.98
2018-05-23T11:45:37.872Z,31.30
2018-05-23T11:48:05.409Z,31.29
2018-05-23T11:50:32.980Z,31.04
2018-05-23T11:53:00.507Z,30.38
2018-05-23T11:55:28.055Z,29.98
2018-05-23T11:57:55.634Z,29.39
2018-05-23T12:00:23.168Z,29.07
2018-05-23T12:02:50.690Z,28.60
2018-05-23T12:05:18.204Z,28.26
2018-05-23T12:07:45.716Z,28.07
2018-05-23T12:10:13.303Z,28.66
2018-05-23T12:12:40.904Z,29.37
2018-05-23T12:15:08.468Z,28.97
2018-05-23T12:17:36.025Z,28.94
2018-05-23T12:20:03.580Z,28.01
2018-05-23T12:22:31.088Z,27.80
2018-05-23T12:24:58.626Z,27.27
2018-05-23T12:27:26.136Z,26.88
2018-05-23T12:29:53.886Z,26.78
2018-05-23T12:32:21.426Z,26.70
2018-05-23T12:34:48.969Z,26.48
2018-05-23T12:37:16.574Z,26.50
2018-05-23T12:39:44.089Z,26.47
2018-05-23T12:42:11.639Z,26.23
2018-05-23T12:44:39.270Z,26.49
2018-05-23T12:47:06.885Z,26.60
2018-05-23T12:49:34.432Z,26.39
2018-05-23T12:52:01.951Z,26.57
2018-05-23T12:54:29.476Z,26.27
2018-05-23T12:56:56.989Z,25.85
2018-05-23T12:59:24.566Z,25.75
2018-05-23T13:01:52.109Z,25.75
2018-05-23T13:04:19.632Z,25.69
2018-05-23T13:06:47.213Z,25.57
2018-05-23T13:09:14.728Z,25.59
2018-05-23T13:11:42.729Z,25.51
2018-05-23T13:14:10.246Z,25.36
2018-05-23T13:16:37.764Z,25.20
2018-05-23T13:19:05.315Z,24.96
2018-05-23T13:21:32.884Z,24.80
2018-05-23T13:24:00.415Z,24.90
2018-05-23T13:26:27.982Z,24.86
2018-05-23T13:28:55.558Z,24.79
2018-05-23T13:31:23.110Z,24.73
2018-05-23T13:33:50.781Z,24.70
2018-05-23T13:36:18.299Z,24.77
2018-05-23T13:38:45.847Z,24.59
2018-05-23T13:41:13.372Z,24.66
2018-05-23T13:43:40.937Z,24.57
2018-05-23T13:46:08.537Z,24.37
2018-05-23T13:48:36.096Z,24.42
2018-05-23T13:51:03.657Z,24.35
2018-05-23T13:53:31.235Z,24.24
2018-05-23T13:55:58.763Z,24.15
2018-05-23T13:58:26.374Z,24.00
2018-05-23T14:00:53.942Z,23.95
2018-05-23T14:03:21.509Z,23.87
2018-05-23T14:05:49.030Z,23.89
2018-05-23T14:08:16.619Z,23.82
2018-05-23T14:10:44.155Z,23.76
2018-05-23T14:13:11.707Z,23.74
2018-05-23T14:15:39.695Z,23.55
2018-05-23T14:18:07.226Z,23.46
2018-05-23T14:20:34.755Z,23.34
2018-05-23T14:23:02.291Z,23.30
2018-05-23T14:25:29.819Z,23.26
2018-05-23T14:27:57.426Z,23.12
2018-05-23T14:30:24.971Z,23.13
2018-05-23T14:32:52.542Z,22.92
2018-05-23T14:35:20.092Z,22.94
2018-05-23T14:37:47.626Z,22.77
2018-05-23T14:40:15.141Z,22.70
2018-05-23T14:42:42.666Z,22.55
2018-05-23T14:45:10.176Z,22.44
2018-05-23T14:47:37.713Z,22.43
2018-05-23T14:50:05.333Z,22.35
2018-05-23T14:52:32.803Z,22.36
2018-05-23T14:55:00.348Z,22.20
2018-05-23T14:57:27.909Z,21.93
2018-05-23T14:59:55.411Z,22.04
2018-05-23T15:02:23.019Z,21.99
2018-05-23T15:04:50.594Z,21.94
2018-05-23T15:07:18.156Z,21.91
2018-05-23T15:09:45.824Z,21.86
2018-05-23T15:12:13.349Z,21.85
2018-05-23T15:14:40.923Z,21.85
2018-05-23T15:17:08.457Z,21.86
2018-05-23T15:19:36.000Z,21.78
2018-05-23T15:22:03.561Z,21.86
2018-05-23T15:24:31.112Z,21.66
2018-05-23T15:26:59.630Z,21.70
2018-05-23T15:29:27.161Z,21.77
2018-05-23T15:31:54.694Z,21.62
2018-05-23T15:34:22.213Z,21.63
2018-05-23T15:36:49.741Z,21.59
2018-05-23T15:39:17.250Z,21.67
2018-05-23T15:41:44.799Z,21.62
2018-05-23T15:44:12.297Z,21.68
2018-05-23T15:46:39.817Z,21.60
2018-05-23T15:49:07.323Z,21.61
2018-05-23T15:51:34.833Z,21.48
2018-05-23T15:54:02.446Z,21.52
2018-05-23T15:56:29.992Z,21.32
2018-05-23T15:58:57.522Z,21.27
2018-05-23T16:01:25.101Z,21.27
2018-05-23T16:03:52.617Z,21.20
2018-05-23T16:06:20.143Z,21.25
2018-05-23T16:08:47.667Z,21.21
2018-05-23T16:11:15.301Z,21.10
2018-05-23T16:13:42.824Z,21.20
2018-05-23T16:16:11.191Z,21.24
2018-05-23T16:18:38.716Z,21.21
2018-05-23T16:21:06.244Z,21.19
2018-05-23T16:23:33.752Z,21.19
2018-05-23T16:26:01.249Z,21.10
2018-05-23T16:28:28.767Z,21.11
2018-05-23T16:30:56.329Z,21.11
2018-05-23T16:33:23.860Z,21.14
2018-05-23T16:35:51.412Z,21.11
2018-05-23T16:38:18.948Z,21.12
2018-05-23T16:40:46.509Z,21.07
2018-05-23T16:43:14.028Z,21.12
2018-05-23T16:45:41.562Z,21.02
2018-05-23T16:48:09.121Z,20.98
2018-05-23T16:50:36.715Z,21.00
2018-05-23T16:53:04.223Z,21.00
2018-05-23T16:55:31.773Z,20.91
2018-05-23T16:57:59.291Z,20.83
2018-05-23T17:00:26.852Z,20.89
2018-05-23T17:02:54.524Z,20.85
2018-05-23T17:05:22.040Z,20.78
2018-05-23T17:07:49.601Z,20.83
2018-05-23T17:10:17.138Z,20.85
2018-05-23T17:12:44.648Z,20.83
2018-05-23T17:15:12.223Z,20.84
2018-05-23T17:17:39.740Z,20.70
2018-05-23T17:20:07.467Z,20.73
2018-05-23T17:22:35.098Z,20.71
2018-05-23T17:25:02.627Z,20.69
2018-05-23T17:27:30.258Z,20.66
2018-05-23T17:29:57.759Z,20.65
2018-05-23T17:32:25.346Z,20.69
2018-05-23T17:34:52.923Z,20.72
2018-05-23T17:37:20.423Z,20.72
2018-05-23T17:39:47.970Z,20.69
2018-05-23T17:42:15.507Z,20.67
2018-05-23T17:44:43.005Z,20.62
2018-05-23T17:47:10.548Z,20.58
2018-05-23T17:52:10.787Z,20.47
2018-05-23T17:54:40.051Z,20.48
2018-05-23T17:57:07.660Z,20.44
2018-05-23T17:59:35.122Z,20.44
2018-05-23T18:02:02.690Z,20.40
2018-05-23T18:04:30.235Z,20.40
2018-05-23T18:06:57.761Z,20.40
2018-05-23T18:09:25.326Z,20.27
2018-05-23T18:11:52.852Z,20.09
2018-05-23T18:14:20.378Z,20.12
2018-05-23T18:16:47.963Z,20.17
2018-05-23T18:19:15.429Z,20.16
2018-05-23T18:21:42.951Z,20.11
2018-05-23T18:24:10.501Z,20.13
2018-05-23T18:26:38.035Z,20.12
2018-05-23T18:29:05.556Z,20.12
2018-05-23T18:31:33.199Z,20.11
2018-05-23T18:34:00.749Z,19.96
2018-05-23T18:36:28.316Z,19.96
2018-05-23T18:38:55.833Z,19.91
2018-05-23T18:41:24.109Z,19.87
2018-05-23T18:43:51.628Z,19.77
2018-05-23T18:46:19.227Z,19.78
2018-05-23T18:48:46.785Z,19.60
2018-05-23T18:51:14.336Z,19.59
2018-05-23T18:53:41.872Z,19.52
2018-05-23T18:56:09.400Z,19.51
2018-05-23T18:58:36.943Z,19.43
2018-05-23T19:01:04.486Z,19.47
2018-05-23T19:03:32.081Z,19.36
2018-05-23T19:05:59.587Z,19.32
2018-05-23T19:08:27.105Z,19.21
2018-05-23T19:10:54.737Z,19.21
2018-05-23T19:13:22.259Z,19.10
2018-05-23T19:15:49.816Z,19.00
2018-05-23T19:18:17.393Z,19.06
2018-05-23T19:20:44.927Z,19.09
2018-05-23T19:23:12.548Z,19.07
2018-05-23T19:25:40.711Z,19.03
2018-05-23T19:28:08.215Z,19.04
2018-05-23T19:30:35.756Z,19.04
2018-05-23T19:33:03.344Z,19.08
2018-05-23T19:35:30.857Z,19.04
2018-05-23T19:37:58.396Z,19.07
2018-05-23T19:40:25.919Z,18.96
2018-05-23T19:42:53.429Z,19.00
2018-05-23T19:45:20.955Z,18.95
2018-05-23T19:47:48.498Z,18.93
2018-05-23T19:50:16.040Z,18.81
2018-05-23T19:52:43.564Z,18.84
2018-05-23T19:55:11.125Z,18.85
2018-05-23T19:57:38.701Z,18.72
2018-05-23T20:00:06.245Z,18.78
2018-05-23T20:02:33.781Z,18.70
2018-05-23T20:05:01.296Z,18.61
2018-05-23T20:07:28.817Z,18.53
2018-05-23T20:09:56.370Z,18.51
2018-05-23T20:12:23.894Z,18.57
2018-05-23T20:14:51.489Z,18.46
2018-05-23T20:17:18.998Z,18.48
2018-05-23T20:19:46.549Z,18.43
2018-05-23T20:22:14.488Z,18.38
2018-05-23T20:24:41.990Z,18.38
2018-05-23T20:27:09.528Z,18.40
2018-05-23T20:29:37.055Z,18.43
2018-05-23T20:32:04.558Z,18.46
2018-05-23T20:34:32.111Z,18.48
2018-05-23T20:36:59.640Z,18.42
2018-05-23T20:39:27.247Z,18.43
2018-05-23T20:41:54.779Z,18.43
2018-05-23T20:44:23.316Z,18.44
2018-05-23T20:46:50.835Z,18.43
2018-05-23T20:49:18.357Z,18.38
2018-05-23T20:51:46.724Z,18.40
2018-05-23T20:54:14.239Z,18.34
2018-05-23T20:56:41.744Z,18.32
2018-05-23T20:59:09.255Z,18.32
2018-05-23T21:01:36.758Z,18.23
2018-05-23T21:04:05.041Z,18.28
2018-05-23T21:06:32.660Z,18.24
2018-05-23T21:09:00.203Z,18.23
2018-05-23T21:11:27.858Z,18.20
2018-05-23T21:13:56.444Z,18.21
2018-05-23T21:16:24.608Z,18.14
2018-05-23T21:18:52.231Z,18.21
2018-05-23T21:21:19.752Z,18.17
2018-05-23T21:23:47.272Z,18.20
2018-05-23T21:26:14.809Z,18.26
2018-05-23T21:28:42.319Z,18.26
2018-05-23T21:31:09.888Z,18.36
2018-05-23T21:33:40.815Z,18.39
2018-05-23T21:36:08.340Z,18.44
2018-05-23T21:38:35.846Z,18.42
2018-05-23T21:41:05.174Z,18.51
2018-05-23T21:43:32.735Z,18.51
2018-05-23T21:46:00.229Z,18.50
2018-05-23T21:48:27.762Z,18.50
2018-05-23T21:50:55.262Z,18.53
2018-05-23T21:53:22.758Z,18.59
2018-05-23T21:55:50.286Z,18.57
2018-05-23T21:58:17.794Z,18.60
2018-05-23T22:00:45.347Z,18.61
2018-05-23T22:03:12.900Z,18.62
2018-05-23T22:05:40.393Z,18.70
2018-05-23T22:08:07.915Z,18.71
2018-05-23T22:10:35.441Z,18.73
2018-05-23T22:13:02.975Z,18.75
2018-05-23T22:18:03.216Z,18.74
2018-05-23T22:20:30.722Z,18.51
2018-05-23T22:22:58.233Z,18.53
2018-05-23T22:25:25.743Z,18.55
2018-05-23T22:27:53.263Z,18.58
2018-05-23T22:30:21.535Z,18.51
2018-05-23T22:32:49.006Z,18.28
2018-05-23T22:35:16.551Z,18.13
2018-05-23T22:37:44.070Z,18.14
2018-05-23T22:40:11.584Z,18.24
2018-05-23T22:42:39.123Z,18.34
2018-05-23T22:45:06.678Z,18.41
2018-05-23T22:47:34.350Z,18.46
2018-05-23T22:50:01.893Z,18.54
2018-05-23T22:52:29.404Z,18.61
2018-05-23T22:54:57.044Z,18.61
2018-05-23T22:57:24.548Z,18.57
2018-05-23T22:59:52.046Z,18.57
2018-05-23T23:02:19.581Z,18.52
2018-05-23T23:07:21.763Z,18.66
2018-05-23T23:09:49.288Z,18.67
2018-05-23T23:12:16.849Z,18.60
2018-05-23T23:14:44.368Z,18.41
2018-05-23T23:17:11.887Z,18.42
2018-05-23T23:19:39.531Z,18.35
2018-05-23T23:22:07.065Z,18.21
2018-05-23T23:24:34.581Z,18.18
2018-05-23T23:27:02.091Z,18.10
2018-05-23T23:29:29.595Z,18.06
2018-05-23T23:31:57.116Z,18.09
2018-05-23T23:34:24.656Z,18.09
2018-05-23T23:36:52.170Z,18.12
2018-05-23T23:39:19.692Z,18.17
2018-05-23T23:41:48.149Z,18.12
2018-05-23T23:44:15.676Z,18.10
2018-05-23T23:46:43.234Z,18.13
2018-05-23T23:49:10.789Z,18.15
2018-05-23T23:51:38.300Z,18.05
2018-05-23T23:54:05.859Z,18.05
2018-05-23T23:56:33.394Z,18.07
2018-05-23T23:59:00.899Z,18.04
